Capt. John Reynolds — WDD6151 — position and weather

sailwx.info

Track history (hours):
 
Tides and Currents Weather Stations Pressure Air Temp Water Temp Dewpoint Dewpoint Depression Visibility Wind Speed Wind Dir Waves Ship Positions

Capt. John Reynolds

Owner: AEP River Operations LLC, Chesterfield, MO. More information available from US FCC via Universal Licensing System and Coast Guard Vessel Documentation Center.

Last reported at 2014-Dec-12 12:11 UTC. Time now 2014-Dec-19 22:45 UTC.
Position N 30°20' W 091°09'.

Length 47 m; draft 3.3 m.

Type: Towing. MMSI: 367168950.

Date/timePositionNaut miles runAvg speedWind from/ knotsBaromVisibWave heightAir tempDewpointWater temp
2014-Dec-12 12:11N 30°20' W 091°09'27 1.2
2014-Dec-11 13:10N 29°59' W 090°49'1 1.2
2014-Dec-11 12:27N 29°60' W 090°50'0 0.0
2014-Dec-11 11:24N 29°60' W 090°50'0 0.0
2014-Dec-11 10:18N 29°60' W 090°50'0 0.0
2014-Dec-11 09:33N 29°60' W 090°50'0 0.0
2014-Dec-11 08:18N 29°60' W 090°50'0 0.0
2014-Dec-11 07:15N 29°60' W 090°50'0 0.2
2014-Dec-11 05:16N 29°59' W 090°49'0 0.0
2014-Dec-11 04:13N 29°59' W 090°49'1 0.9
2014-Dec-11 03:25N 29°59' W 090°49'42 1.7
2014-Dec-10 03:13N 29°57' W 090°01'0 0.0
2014-Dec-10 00:09N 29°57' W 090°01'1 0.0
2014-Dec-08 15:30N 29°56' W 090°00'3 3.1
2014-Dec-08 14:31N 29°57' W 090°03'5 3.7
2014-Dec-08 13:14N 29°55' W 090°08'4 2.5
2014-Dec-08 11:29N 29°56' W 090°13'32 3.0
2014-Dec-08 01:05N 29°59' W 090°49'43 1.6
2014-Dec-06 21:33N 29°57' W 090°00'  
2014-Dec-03 23:33N 29°56' W 089°60'4 3.6
2014-Dec-03 22:26N 29°55' W 090°04'40 1.2
2014-Dec-02 13:23N 30°01' W 090°50'  
Track history (hours):
 
Tides and Currents Weather Stations Pressure Air Temp Water Temp Dewpoint Dewpoint Depression Visibility Wind Speed Wind Dir Waves Ship Positions

Capt. John Reynolds

Owner: AEP River Operations LLC, Chesterfield, MO. More information available from US FCC via Universal Licensing System and Coast Guard Vessel Documentation Center.

Last reported at 2014-Dec-12 12:11 UTC. Time now 2014-Dec-19 22:45 UTC.
Position N 30°20' W 091°09'.

Length 47 m; draft 3.3 m.

Type: Towing. MMSI: 367168950.

Date/timePositionNaut miles runAvg speedWind from/ knotsBaromVisibWave heightAir tempDewpointWater temp
2014-Dec-12 12:11N 30°20' W 091°09'27 1.2
2014-Dec-11 13:10N 29°59' W 090°49'1 1.2
2014-Dec-11 12:27N 29°60' W 090°50'0 0.0
2014-Dec-11 11:24N 29°60' W 090°50'0 0.0
2014-Dec-11 10:18N 29°60' W 090°50'0 0.0
2014-Dec-11 09:33N 29°60' W 090°50'0 0.0
2014-Dec-11 08:18N 29°60' W 090°50'0 0.0
2014-Dec-11 07:15N 29°60' W 090°50'0 0.2
2014-Dec-11 05:16N 29°59' W 090°49'0 0.0
2014-Dec-11 04:13N 29°59' W 090°49'1 0.9
2014-Dec-11 03:25N 29°59' W 090°49'42 1.7
2014-Dec-10 03:13N 29°57' W 090°01'0 0.0
2014-Dec-10 00:09N 29°57' W 090°01'1 0.0
2014-Dec-08 15:30N 29°56' W 090°00'3 3.1
2014-Dec-08 14:31N 29°57' W 090°03'5 3.7
2014-Dec-08 13:14N 29°55' W 090°08'4 2.5
2014-Dec-08 11:29N 29°56' W 090°13'32 3.0
2014-Dec-08 01:05N 29°59' W 090°49'43 1.6
2014-Dec-06 21:33N 29°57' W 090°00'  
2014-Dec-03 23:33N 29°56' W 089°60'4 3.6
2014-Dec-03 22:26N 29°55' W 090°04'40 1.2
2014-Dec-02 13:23N 30°01' W 090°50'  

Dump ship's entire track history